createdAt,value
2023-02-25T00:00:00.363Z,3.93
2023-02-25T00:02:29.883Z,3.86
2023-02-25T00:05:01.394Z,4.03
2023-02-25T00:07:32.052Z,3.98
2023-02-25T00:10:02.733Z,3.75
2023-02-25T00:12:32.584Z,3.75
2023-02-25T00:15:02.687Z,3.75
2023-02-25T00:17:32.809Z,3.88
2023-02-25T00:20:04.942Z,3.70
2023-02-25T00:22:37.092Z,3.79
2023-02-25T00:25:09.180Z,3.96
2023-02-25T00:27:39.142Z,3.97
2023-02-25T00:30:10.792Z,3.86
2023-02-25T00:32:40.950Z,3.77
2023-02-25T00:35:12.851Z,3.83
2023-02-25T00:37:42.667Z,3.80
2023-02-25T00:40:15.418Z,3.80
2023-02-25T00:42:45.324Z,3.94
2023-02-25T00:45:15.142Z,3.94
2023-02-25T00:47:45.096Z,3.95
2023-02-25T00:50:15.842Z,3.86
2023-02-25T00:52:46.475Z,4.08
2023-02-25T00:55:17.765Z,4.08
2023-02-25T00:57:47.977Z,3.82
2023-02-25T01:00:17.861Z,3.99
2023-02-25T01:02:47.721Z,3.91
2023-02-25T01:05:17.966Z,3.96
2023-02-25T01:07:48.052Z,3.86
2023-02-25T01:10:18.114Z,3.99
2023-02-25T01:12:48.170Z,4.06
2023-02-25T01:15:18.207Z,4.20
2023-02-25T01:17:48.034Z,4.21
2023-02-25T01:20:22.446Z,4.14
2023-02-25T01:22:52.709Z,4.26
2023-02-25T01:25:24.743Z,4.45
2023-02-25T01:27:58.680Z,4.21
2023-02-25T01:30:28.627Z,4.21
2023-02-25T01:32:58.770Z,4.41
2023-02-25T01:35:28.658Z,4.51
2023-02-25T01:37:58.789Z,4.44
2023-02-25T01:40:28.717Z,4.47
2023-02-25T01:42:58.588Z,4.55
2023-02-25T01:48:16.860Z,4.60
2023-02-25T01:50:49.733Z,4.77
2023-02-25T01:53:22.917Z,4.60
2023-02-25T01:55:53.445Z,4.74
2023-02-25T01:58:26.680Z,4.91
2023-02-25T02:00:57.194Z,4.65
2023-02-25T02:03:29.797Z,4.65
2023-02-25T02:06:09.996Z,4.41
2023-02-25T02:08:43.810Z,4.41
2023-02-25T02:11:13.588Z,4.58
2023-02-25T02:13:46.726Z,4.46
2023-02-25T02:16:35.964Z,4.59
2023-02-25T02:19:09.184Z,4.60
2023-02-25T02:21:56.871Z,4.57
2023-02-25T02:25:02.455Z,4.51
2023-02-25T02:28:03.684Z,4.50
2023-02-25T02:31:11.147Z,4.42
2023-02-25T02:33:46.877Z,4.21
2023-02-25T02:36:17.091Z,4.21
2023-02-25T02:39:04.052Z,4.51
2023-02-25T02:41:39.224Z,4.30
2023-02-25T02:44:20.065Z,4.38
2023-02-25T02:46:58.981Z,4.45
2023-02-25T02:52:46.778Z,4.37
2023-02-25T02:55:23.641Z,4.31
2023-02-25T02:57:57.919Z,4.56
2023-02-25T03:00:30.731Z,4.49
2023-02-25T03:03:15.218Z,4.49
2023-02-25T03:05:48.421Z,4.63
2023-02-25T03:08:23.822Z,4.54
2023-02-25T03:10:53.098Z,4.54
2023-02-25T03:13:23.624Z,4.73
2023-02-25T03:15:54.689Z,4.52
2023-02-25T03:18:27.366Z,4.59
2023-02-25T03:20:59.422Z,4.73
2023-02-25T03:23:32.235Z,4.55
2023-02-25T03:26:08.491Z,4.47
2023-02-25T03:28:37.245Z,4.50
2023-02-25T03:31:12.376Z,4.40
2023-02-25T03:33:54.721Z,4.41
2023-02-25T03:36:32.722Z,4.58
2023-02-25T03:39:06.279Z,4.61
2023-02-25T03:41:39.324Z,4.31
2023-02-25T03:44:16.254Z,4.43
2023-02-25T03:46:47.871Z,4.41
2023-02-25T03:49:41.485Z,4.31
2023-02-25T03:52:16.595Z,4.51
2023-02-25T03:54:52.558Z,4.45
2023-02-25T03:57:26.556Z,4.16
2023-02-25T03:59:57.003Z,4.36
2023-02-25T04:02:29.827Z,4.25
2023-02-25T04:05:00.146Z,4.30
2023-02-25T04:07:30.382Z,4.47
2023-02-25T04:10:00.224Z,4.16
2023-02-25T04:12:30.038Z,4.37
2023-02-25T04:14:59.856Z,4.32
2023-02-25T04:17:30.556Z,4.39
2023-02-25T04:20:00.568Z,4.50
2023-02-25T04:22:30.439Z,4.45
2023-02-25T04:25:00.576Z,4.39
2023-02-25T04:27:31.987Z,4.52
2023-02-25T04:30:01.913Z,4.74
2023-02-25T04:32:31.921Z,4.60
2023-02-25T04:35:03.340Z,4.76
2023-02-25T04:37:33.259Z,4.88
2023-02-25T04:40:06.235Z,4.80
2023-02-25T04:42:36.017Z,4.80
2023-02-25T04:45:10.497Z,4.80
2023-02-25T04:47:40.682Z,4.92
2023-02-25T04:50:11.612Z,4.81
2023-02-25T04:52:41.665Z,4.89
2023-02-25T04:55:11.544Z,4.70
2023-02-25T04:57:42.705Z,4.66
2023-02-25T05:00:16.342Z,4.51
2023-02-25T05:02:48.462Z,4.36
2023-02-25T05:05:19.177Z,4.50
2023-02-25T05:07:49.295Z,4.25
2023-02-25T05:10:19.703Z,4.48
2023-02-25T05:12:49.891Z,4.22
2023-02-25T05:15:19.496Z,4.25
2023-02-25T05:17:49.672Z,4.25
2023-02-25T05:20:19.934Z,4.34
2023-02-25T05:22:50.113Z,4.08
2023-02-25T05:25:20.304Z,4.09
2023-02-25T05:27:50.444Z,3.95
2023-02-25T05:30:20.143Z,4.16
2023-02-25T05:32:50.084Z,4.12
2023-02-25T05:35:20.118Z,4.17
2023-02-25T05:37:50.576Z,4.12
2023-02-25T05:40:20.620Z,4.21
2023-02-25T05:42:50.479Z,4.21
2023-02-25T05:45:20.394Z,4.32
2023-02-25T05:47:50.512Z,4.32
2023-02-25T05:50:20.529Z,4.27
2023-02-25T05:52:50.341Z,4.23
2023-02-25T05:55:21.262Z,4.19
2023-02-25T05:57:51.288Z,4.08
2023-02-25T06:00:21.586Z,4.11
2023-02-25T06:02:51.798Z,4.03
2023-02-25T06:05:21.825Z,4.09
2023-02-25T06:07:52.044Z,4.11
2023-02-25T06:10:22.262Z,4.06
2023-02-25T06:12:52.052Z,4.20
2023-02-25T06:15:21.852Z,4.27
2023-02-25T06:17:51.909Z,4.37
2023-02-25T06:20:23.026Z,4.22
2023-02-25T06:22:55.774Z,4.51
2023-02-25T06:25:27.489Z,4.37
2023-02-25T06:27:58.746Z,4.36
2023-02-25T06:30:30.067Z,4.41
2023-02-25T06:32:59.920Z,4.44
2023-02-25T06:35:30.501Z,4.47
2023-02-25T06:38:01.701Z,4.37
2023-02-25T06:40:33.552Z,4.39
2023-02-25T06:43:03.779Z,4.44
2023-02-25T06:45:33.685Z,4.54
2023-02-25T06:48:06.874Z,4.58
2023-02-25T06:50:38.535Z,4.69
2023-02-25T06:53:09.870Z,4.69
2023-02-25T06:55:41.762Z,4.54
2023-02-25T06:58:11.593Z,4.59
2023-02-25T07:00:43.041Z,4.61
2023-02-25T07:03:14.387Z,4.40
2023-02-25T07:05:44.695Z,4.47
2023-02-25T07:08:15.740Z,4.31
2023-02-25T07:10:47.200Z,4.34
2023-02-25T07:13:17.559Z,4.35
2023-02-25T07:15:47.627Z,4.35
2023-02-25T07:18:20.265Z,4.47
2023-02-25T07:20:50.074Z,4.48
2023-02-25T07:23:20.000Z,4.52
2023-02-25T07:25:50.812Z,4.70
2023-02-25T07:28:20.313Z,4.44
2023-02-25T07:30:50.270Z,4.55
2023-02-25T07:33:20.094Z,4.55
2023-02-25T07:35:49.983Z,4.55
2023-02-25T07:38:19.738Z,4.55
2023-02-25T07:40:49.551Z,4.92
2023-02-25T07:43:19.686Z,4.91
2023-02-25T07:45:51.150Z,4.92
2023-02-25T07:48:20.906Z,5.06
2023-02-25T07:50:50.705Z,5.20
2023-02-25T07:53:21.868Z,5.36
2023-02-25T07:55:51.958Z,5.30
2023-02-25T07:58:21.699Z,5.22
2023-02-25T08:00:52.024Z,5.25
2023-02-25T08:03:22.048Z,5.13
2023-02-25T08:05:54.335Z,5.01
2023-02-25T08:08:24.325Z,5.31
2023-02-25T08:10:54.474Z,5.30
2023-02-25T08:13:24.217Z,5.41
2023-02-25T08:15:54.134Z,5.32
2023-02-25T08:18:24.013Z,5.36
2023-02-25T08:20:55.421Z,5.57
2023-02-25T08:23:25.973Z,5.55
2023-02-25T08:25:56.759Z,5.83
2023-02-25T08:28:33.466Z,5.74
2023-02-25T08:31:01.671Z,5.74
2023-02-25T08:33:33.421Z,5.80
2023-02-25T08:36:14.253Z,5.76
2023-02-25T08:38:44.653Z,5.76
2023-02-25T08:41:14.853Z,5.77
2023-02-25T08:43:47.833Z,5.88
2023-02-25T08:46:21.201Z,5.91
2023-02-25T08:48:52.460Z,6.38
2023-02-25T08:51:24.465Z,6.57
2023-02-25T08:53:54.598Z,6.27
2023-02-25T08:56:24.236Z,6.09
2023-02-25T08:58:57.103Z,6.41
2023-02-25T09:01:28.714Z,6.34
2023-02-25T09:03:58.899Z,6.30
2023-02-25T09:06:29.384Z,6.61
2023-02-25T09:08:59.567Z,7.09
2023-02-25T09:11:29.506Z,7.09
2023-02-25T09:13:59.743Z,6.95
2023-02-25T09:16:30.594Z,6.85
2023-02-25T09:19:00.665Z,6.85
2023-02-25T09:21:30.425Z,6.61
2023-02-25T09:24:00.534Z,6.66
2023-02-25T09:26:30.401Z,6.76
2023-02-25T09:29:05.147Z,6.84
2023-02-25T09:31:37.004Z,6.79
2023-02-25T09:34:10.004Z,6.70
2023-02-25T09:36:40.102Z,6.88
2023-02-25T09:39:10.579Z,6.80
2023-02-25T09:41:49.120Z,6.86
2023-02-25T09:44:21.386Z,6.83
2023-02-25T09:46:57.116Z,6.72
2023-02-25T09:49:33.148Z,6.35
2023-02-25T09:52:08.852Z,6.47
2023-02-25T09:54:47.455Z,6.74
2023-02-25T09:57:20.392Z,6.94
2023-02-25T09:59:55.253Z,7.13
2023-02-25T10:02:40.198Z,7.13
2023-02-25T10:05:33.524Z,7.58
2023-02-25T10:08:11.810Z,7.75
2023-02-25T10:10:59.471Z,7.99
2023-02-25T10:13:54.362Z,8.17
2023-02-25T10:16:38.916Z,8.61
2023-02-25T10:19:34.433Z,8.96
2023-02-25T10:22:17.149Z,8.96
2023-02-25T10:25:01.504Z,9.31
2023-02-25T10:30:19.387Z,9.12
2023-02-25T10:32:49.856Z,8.89
2023-02-25T10:35:30.141Z,8.65
2023-02-25T10:37:59.903Z,8.88
2023-02-25T10:40:29.496Z,8.60
2023-02-25T10:43:02.562Z,8.20
2023-02-25T10:45:33.270Z,8.15
2023-02-25T10:48:24.167Z,8.15
2023-02-25T10:51:05.865Z,7.90
2023-02-25T10:53:36.536Z,7.52
2023-02-25T10:56:08.577Z,7.62
2023-02-25T10:59:05.087Z,7.53
2023-02-25T11:01:43.909Z,7.49
2023-02-25T11:04:16.475Z,7.91
2023-02-25T11:06:47.717Z,7.80
2023-02-25T11:09:23.254Z,8.07
2023-02-25T11:11:58.393Z,7.95
2023-02-25T11:14:31.474Z,7.57
2023-02-25T11:17:08.569Z,8.01
2023-02-25T11:19:41.399Z,6.90
2023-02-25T11:22:20.335Z,6.35
2023-02-25T11:24:59.793Z,5.72
2023-02-25T11:27:41.543Z,5.89
2023-02-25T11:30:17.274Z,5.83
2023-02-25T11:32:53.922Z,5.54
2023-02-25T11:35:35.233Z,5.57
2023-02-25T11:38:18.967Z,5.66
2023-02-25T11:40:48.809Z,5.68
2023-02-25T11:43:24.449Z,6.04
2023-02-25T11:45:57.050Z,6.14
2023-02-25T11:48:45.777Z,6.40
2023-02-25T11:51:20.707Z,6.59
2023-02-25T11:54:14.073Z,6.57
2023-02-25T11:57:05.396Z,6.88
2023-02-25T11:59:47.819Z,7.23
2023-02-25T12:02:48.869Z,7.46
2023-02-25T12:05:30.808Z,7.52
2023-02-25T12:08:33.010Z,7.84
2023-02-25T12:11:24.351Z,8.03
2023-02-25T12:14:33.329Z,7.73
2023-02-25T12:17:20.974Z,7.70
2023-02-25T12:20:15.890Z,7.70
2023-02-25T12:23:04.115Z,8.03
2023-02-25T12:25:53.109Z,8.16
2023-02-25T12:28:39.341Z,8.32
2023-02-25T12:34:16.757Z,7.85
2023-02-25T12:37:22.363Z,7.82
2023-02-25T12:40:04.345Z,7.64
2023-02-25T12:42:45.885Z,8.39
2023-02-25T12:45:35.164Z,9.08
2023-02-25T12:48:25.839Z,9.09
2023-02-25T12:51:04.852Z,8.60
2023-02-25T12:54:01.327Z,8.21
2023-02-25T12:56:53.576Z,7.92
2023-02-25T12:59:44.274Z,8.10
2023-02-25T13:02:40.319Z,8.11
2023-02-25T13:05:32.159Z,8.38
2023-02-25T13:08:22.773Z,8.68
2023-02-25T13:11:04.289Z,8.86
2023-02-25T13:13:55.299Z,8.53
2023-02-25T13:16:42.867Z,7.82
2023-02-25T13:19:50.323Z,7.82
2023-02-25T13:22:44.031Z,7.52
2023-02-25T13:25:40.520Z,7.68
2023-02-25T13:28:32.253Z,8.06
2023-02-25T13:31:20.102Z,8.17
2023-02-25T13:34:04.837Z,8.49
2023-02-25T13:36:40.194Z,8.93
2023-02-25T13:39:27.979Z,9.12
2023-02-25T13:42:25.978Z,8.64
2023-02-25T13:45:16.633Z,8.46
2023-02-25T13:47:55.520Z,8.30
2023-02-25T13:50:46.833Z,8.30
2023-02-25T13:53:22.540Z,8.33
2023-02-25T13:56:17.505Z,8.38
2023-02-25T13:59:05.752Z,8.51
2023-02-25T14:05:02.603Z,8.81
2023-02-25T14:07:40.747Z,8.30
2023-02-25T14:10:29.293Z,7.81
2023-02-25T14:13:21.703Z,8.03
2023-02-25T14:16:00.531Z,8.30
2023-02-25T14:18:43.343Z,8.59
2023-02-25T14:21:51.614Z,9.05
2023-02-25T14:24:41.040Z,8.78
2023-02-25T14:27:37.538Z,8.84
2023-02-25T14:30:41.517Z,8.66
2023-02-25T14:33:18.570Z,8.57
2023-02-25T14:39:19.334Z,8.68
2023-02-25T14:42:03.699Z,8.70
2023-02-25T14:44:38.710Z,8.90
2023-02-25T14:47:23.368Z,8.44
2023-02-25T14:50:12.584Z,8.22
2023-02-25T14:53:00.226Z,8.05
2023-02-25T14:56:07.502Z,8.27
2023-02-25T14:59:01.232Z,8.09
2023-02-25T15:01:39.632Z,8.05
2023-02-25T15:04:23.031Z,7.81
2023-02-25T15:07:14.985Z,7.81
2023-02-25T15:10:20.806Z,7.88
2023-02-25T15:13:14.207Z,7.98
2023-02-25T15:16:01.808Z,8.05
2023-02-25T15:18:45.689Z,7.75
2023-02-25T15:21:46.466Z,7.76
2023-02-25T15:24:35.196Z,7.98
2023-02-25T15:27:24.142Z,7.93
2023-02-25T15:30:05.324Z,8.02
2023-02-25T15:32:53.357Z,7.96
2023-02-25T15:35:39.760Z,7.40
2023-02-25T15:38:14.724Z,7.39
2023-02-25T15:40:47.679Z,7.39
2023-02-25T15:43:22.445Z,7.21
2023-02-25T15:46:03.948Z,7.25
2023-02-25T15:48:36.194Z,7.64
2023-02-25T15:51:10.153Z,7.56
2023-02-25T15:53:44.244Z,7.86
2023-02-25T15:56:17.049Z,7.60
2023-02-25T15:58:54.491Z,7.54
2023-02-25T16:01:30.845Z,7.55
2023-02-25T16:04:01.312Z,7.50
2023-02-25T16:06:37.306Z,7.49
2023-02-25T16:09:12.480Z,7.33
2023-02-25T16:11:51.296Z,7.00
2023-02-25T16:14:29.944Z,6.93
2023-02-25T16:17:05.898Z,6.97
2023-02-25T16:19:40.034Z,6.52
2023-02-25T16:22:22.512Z,6.52
2023-02-25T16:24:58.149Z,6.41
2023-02-25T16:27:51.233Z,6.47
2023-02-25T16:30:43.407Z,6.31
2023-02-25T16:33:30.059Z,6.12
2023-02-25T16:39:06.637Z,6.56
2023-02-25T16:41:38.986Z,6.36
2023-02-25T16:44:10.473Z,6.33
2023-02-25T16:46:41.500Z,6.20
2023-02-25T16:49:16.953Z,6.13
2023-02-25T16:51:48.645Z,6.14
2023-02-25T16:54:25.493Z,6.12
2023-02-25T16:57:01.034Z,5.76
2023-02-25T16:59:36.190Z,5.79
2023-02-25T17:02:19.646Z,5.58
2023-02-25T17:04:52.666Z,5.51
2023-02-25T17:07:25.494Z,5.44
2023-02-25T17:09:59.467Z,5.48
2023-02-25T17:12:35.136Z,5.53
2023-02-25T17:15:09.493Z,5.08
2023-02-25T17:17:42.202Z,5.32
2023-02-25T17:20:22.224Z,5.09
2023-02-25T17:22:53.454Z,5.30
2023-02-25T17:25:27.302Z,4.98
2023-02-25T17:27:59.288Z,5.03
2023-02-25T17:30:47.412Z,5.03
2023-02-25T17:33:26.675Z,5.02
2023-02-25T17:36:15.512Z,4.76
2023-02-25T17:38:49.210Z,4.90
2023-02-25T17:41:20.745Z,4.74
2023-02-25T17:43:50.683Z,4.71
2023-02-25T17:46:29.402Z,4.73
2023-02-25T17:49:02.627Z,4.77
2023-02-25T17:51:35.491Z,4.85
2023-02-25T17:54:12.158Z,4.58
2023-02-25T17:56:42.379Z,4.59
2023-02-25T17:59:18.046Z,4.65
2023-02-25T18:01:50.981Z,4.62
2023-02-25T18:04:41.759Z,4.53
2023-02-25T18:07:28.425Z,4.34
2023-02-25T18:09:59.839Z,4.34
2023-02-25T18:12:32.712Z,4.50
2023-02-25T18:15:04.899Z,4.41
2023-02-25T18:17:39.456Z,4.30
2023-02-25T18:20:28.635Z,4.29
2023-02-25T18:23:03.608Z,4.25
2023-02-25T18:25:39.074Z,4.03
2023-02-25T18:28:16.327Z,4.01
2023-02-25T18:30:45.709Z,3.92
2023-02-25T18:33:15.430Z,4.04
2023-02-25T18:35:48.165Z,3.83
2023-02-25T18:38:26.109Z,3.77
2023-02-25T18:40:56.210Z,3.77
2023-02-25T18:43:29.455Z,3.82
2023-02-25T18:45:59.750Z,3.82
2023-02-25T18:48:31.185Z,3.94
2023-02-25T18:51:00.930Z,3.80
2023-02-25T18:53:30.734Z,3.88
2023-02-25T18:56:00.666Z,3.81
2023-02-25T18:58:33.512Z,3.81
2023-02-25T19:01:03.402Z,3.69
2023-02-25T19:03:40.144Z,3.58
2023-02-25T19:06:11.553Z,3.58
2023-02-25T19:08:41.304Z,3.49
2023-02-25T19:11:14.166Z,3.66
2023-02-25T19:13:44.419Z,3.46
2023-02-25T19:16:14.271Z,3.56
2023-02-25T19:18:44.629Z,3.56
2023-02-25T19:21:16.518Z,3.36
2023-02-25T19:23:47.056Z,3.40
2023-02-25T19:26:17.651Z,3.47
2023-02-25T19:28:47.482Z,3.32
2023-02-25T19:31:18.670Z,3.32
2023-02-25T19:33:48.539Z,3.36
2023-02-25T19:36:18.623Z,3.31
2023-02-25T19:38:48.664Z,3.23
2023-02-25T19:41:19.924Z,3.33
2023-02-25T19:43:49.863Z,3.25
2023-02-25T19:46:19.645Z,3.01
2023-02-25T19:48:49.492Z,3.01
2023-02-25T19:51:19.402Z,3.12
2023-02-25T19:53:49.177Z,3.06
2023-02-25T19:56:18.932Z,3.17
2023-02-25T19:58:48.451Z,3.15
2023-02-25T20:01:18.960Z,2.98
2023-02-25T20:03:48.978Z,3.05
2023-02-25T20:06:22.404Z,3.02
2023-02-25T20:08:54.011Z,2.86
2023-02-25T20:11:23.888Z,2.91
2023-02-25T20:13:53.740Z,2.90
2023-02-25T20:16:25.225Z,2.87
2023-02-25T20:18:57.084Z,2.86
2023-02-25T20:21:27.737Z,2.79
2023-02-25T20:24:00.498Z,2.87
2023-02-25T20:26:32.391Z,2.78
2023-02-25T20:29:03.816Z,2.86
2023-02-25T20:31:33.661Z,2.95
2023-02-25T20:34:05.855Z,2.98
2023-02-25T20:36:52.874Z,2.99
2023-02-25T20:39:34.441Z,2.89
2023-02-25T20:42:14.809Z,2.91
2023-02-25T20:44:44.915Z,2.91
2023-02-25T20:47:26.761Z,2.71
2023-02-25T20:49:58.145Z,2.90
2023-02-25T20:52:28.611Z,2.92
2023-02-25T20:54:58.810Z,2.74
2023-02-25T20:57:28.980Z,2.74
2023-02-25T21:00:02.092Z,2.78
2023-02-25T21:02:31.809Z,2.78
2023-02-25T21:05:01.757Z,2.43
2023-02-25T21:07:31.588Z,2.43
2023-02-25T21:10:01.909Z,2.50
2023-02-25T21:12:33.257Z,2.49
2023-02-25T21:15:03.193Z,2.55
2023-02-25T21:17:32.954Z,2.31
2023-02-25T21:20:04.496Z,2.50
2023-02-25T21:22:35.339Z,2.49
2023-02-25T21:25:07.940Z,2.30
2023-02-25T21:27:37.862Z,2.30
2023-02-25T21:30:11.016Z,2.27
2023-02-25T21:32:41.507Z,2.24
2023-02-25T21:35:11.104Z,2.22
2023-02-25T21:37:40.940Z,2.24
2023-02-25T21:40:13.297Z,2.23
2023-02-25T21:42:43.067Z,2.23
2023-02-25T21:45:13.037Z,2.30
2023-02-25T21:47:42.775Z,2.22
2023-02-25T21:50:14.219Z,2.22
2023-02-25T21:52:44.057Z,1.97
2023-02-25T21:55:13.949Z,2.19
2023-02-25T21:57:44.053Z,2.13
2023-02-25T22:00:14.207Z,2.10
2023-02-25T22:02:43.998Z,1.93
2023-02-25T22:05:13.710Z,2.01
2023-02-25T22:07:43.914Z,2.07
2023-02-25T22:10:15.276Z,1.91
2023-02-25T22:12:48.098Z,1.80
2023-02-25T22:15:18.097Z,1.90
2023-02-25T22:17:47.921Z,1.96
2023-02-25T22:20:18.085Z,1.85
2023-02-25T22:22:50.789Z,1.62
2023-02-25T22:25:19.889Z,1.67
2023-02-25T22:27:49.683Z,1.54
2023-02-25T22:30:20.733Z,1.57
2023-02-25T22:32:50.297Z,1.42
2023-02-25T22:35:19.906Z,1.51
2023-02-25T22:37:50.082Z,1.43
2023-02-25T22:40:19.925Z,1.67
2023-02-25T22:42:49.708Z,1.60
2023-02-25T22:45:19.229Z,1.69
2023-02-25T22:47:49.088Z,1.63
2023-02-25T22:50:18.727Z,1.60
2023-02-25T22:52:48.734Z,1.63
2023-02-25T22:55:19.961Z,1.36
2023-02-25T22:57:49.765Z,1.35
2023-02-25T23:00:20.711Z,1.12
2023-02-25T23:02:50.872Z,1.23
2023-02-25T23:05:23.690Z,1.28
2023-02-25T23:07:53.521Z,1.42
2023-02-25T23:10:27.283Z,1.26
2023-02-25T23:13:04.225Z,1.19
2023-02-25T23:15:35.817Z,1.25
2023-02-25T23:18:09.707Z,1.21
2023-02-25T23:20:40.127Z,1.19
2023-02-25T23:23:11.832Z,1.12
2023-02-25T23:25:42.801Z,1.30
2023-02-25T23:28:12.739Z,1.11
2023-02-25T23:30:42.813Z,1.07
2023-02-25T23:33:12.632Z,1.17
2023-02-25T23:35:43.294Z,1.03
2023-02-25T23:38:13.236Z,1.29
2023-02-25T23:40:43.267Z,1.29
2023-02-25T23:43:13.109Z,1.32
2023-02-25T23:45:46.817Z,1.11
2023-02-25T23:48:14.379Z,1.26
2023-02-25T23:50:44.629Z,1.20
2023-02-25T23:53:14.474Z,1.32
2023-02-25T23:55:44.572Z,1.31
2023-02-25T23:58:14.314Z,1.24
